ADDS METAR Data INFO
IDs: Format: Raw Decoded Include TAF

Data at: 0427 UTC 22 Apr 2018

METAR for:KFWA (Fort Wayne Intl, IN, US)
Text:KFWA 220354Z 10007KT 10SM OVC140 08/M01 A3039 RMK AO2 SLP293 T00831006
Temperature: 8.3°C ( 47°F)
Dewpoint: -0.6°C ( 31°F) [RH = 53%]
Pressure (altimeter):30.39 inches Hg (1029.2 mb) [Sea level pressure: 1029.3 mb]
Winds:from the E (100 degrees) at 8 MPH (7 knots; 3.6 m/s)
Visibility:10 or more sm (16+ km)
Ceiling:14000 feet AGL
Clouds: overcast cloud deck at 14000 feet AGL